createdAt,value
2023-02-16T00:03:33.921Z,100352.28
2023-02-16T00:06:21.192Z,100351.09
2023-02-16T00:09:08.289Z,100379.06
2023-02-16T00:12:14.154Z,100368.13
2023-02-16T00:15:18.728Z,100347.56
2023-02-16T00:18:17.419Z,100368.78
2023-02-16T00:21:04.912Z,100357.66
2023-02-16T00:23:52.903Z,100364.09
2023-02-16T00:26:41.713Z,100374.72
2023-02-16T00:29:33.473Z,100336.03
2023-02-16T00:32:20.592Z,100336.25
2023-02-16T00:35:14.884Z,100357.34
2023-02-16T00:38:01.983Z,100371.72
2023-02-16T00:40:49.014Z,100332.69
2023-02-16T00:43:36.074Z,100363.78
2023-02-16T00:46:23.213Z,100353.03
2023-02-16T00:49:15.515Z,100337.16
2023-02-16T00:52:05.908Z,100337.09
2023-02-16T00:54:52.961Z,100339.78
2023-02-16T00:57:48.169Z,100325.41
2023-02-16T01:00:38.255Z,100359.69
2023-02-16T01:03:28.388Z,100332.78
2023-02-16T01:06:34.223Z,100316.94
2023-02-16T01:09:40.077Z,100340.19
2023-02-16T01:12:27.192Z,100347.06
2023-02-16T01:15:16.120Z,100363.75
2023-02-16T01:18:03.334Z,100335.81
2023-02-16T01:20:50.436Z,100353.34
2023-02-16T01:23:38.837Z,100350.81
2023-02-16T01:26:25.927Z,100328.75
2023-02-16T01:29:18.489Z,100338.72
2023-02-16T01:32:05.836Z,100345.00
2023-02-16T01:38:24.790Z,100341.38
2023-02-16T01:41:23.371Z,100326.81
2023-02-16T01:44:23.436Z,100339.09
2023-02-16T01:47:27.569Z,100342.22
2023-02-16T01:50:19.111Z,100349.16
2023-02-16T01:53:30.814Z,100344.38
2023-02-16T01:56:35.881Z,100333.22
2023-02-16T01:59:38.128Z,100337.34
2023-02-16T02:02:35.647Z,100325.03
2023-02-16T02:05:36.817Z,100326.91
2023-02-16T02:08:40.848Z,100319.22
2023-02-16T02:11:33.628Z,100311.22
2023-02-16T02:14:30.104Z,100306.59
2023-02-16T02:17:20.395Z,100315.72
2023-02-16T02:20:13.393Z,100315.53
2023-02-16T02:23:31.353Z,100318.56
2023-02-16T02:26:21.361Z,100315.97
2023-02-16T02:29:21.199Z,100302.69
2023-02-16T02:32:25.075Z,100320.44
2023-02-16T02:35:12.137Z,100316.63
2023-02-16T02:38:12.494Z,100299.03
2023-02-16T02:41:47.953Z,100318.38
2023-02-16T02:45:14.278Z,100320.75
2023-02-16T02:48:01.389Z,100330.19
2023-02-16T02:51:11.395Z,100323.44
2023-02-16T02:54:32.629Z,100309.25
2023-02-16T02:57:46.076Z,100325.94
2023-02-16T03:00:43.824Z,100317.22
2023-02-16T03:03:38.357Z,100314.41
2023-02-16T03:06:32.392Z,100312.94
2023-02-16T03:09:20.948Z,100298.13
2023-02-16T03:12:29.223Z,100300.88
2023-02-16T03:15:17.547Z,100290.41
2023-02-16T03:18:26.003Z,100303.59
2023-02-16T03:21:33.892Z,100304.63
2023-02-16T03:24:50.792Z,100312.03
2023-02-16T03:28:00.877Z,100313.59
2023-02-16T03:30:50.772Z,100308.22
2023-02-16T03:33:38.469Z,100259.91
2023-02-16T03:36:29.805Z,100304.91
2023-02-16T03:39:18.407Z,100317.00
2023-02-16T03:42:05.506Z,100308.38
2023-02-16T03:44:52.990Z,100308.28
2023-02-16T03:47:40.022Z,100300.19
2023-02-16T03:50:27.590Z,100329.16
2023-02-16T03:53:15.975Z,100308.63
2023-02-16T03:56:04.686Z,100312.59
2023-02-16T03:58:51.801Z,100310.31
2023-02-16T04:01:38.836Z,100317.53
2023-02-16T04:04:25.928Z,100322.16
2023-02-16T04:07:13.422Z,100315.94
2023-02-16T04:10:00.484Z,100305.25
2023-02-16T04:12:48.054Z,100311.06
2023-02-16T04:15:35.177Z,100330.28
2023-02-16T04:18:22.291Z,100327.69
2023-02-16T04:21:09.389Z,100292.22
2023-02-16T04:23:56.425Z,100305.94
2023-02-16T04:26:45.461Z,100323.72
2023-02-16T04:29:32.647Z,100323.53
2023-02-16T04:32:19.875Z,100304.53
2023-02-16T04:35:07.602Z,100322.84
2023-02-16T04:37:54.634Z,100327.13
2023-02-16T04:40:41.887Z,100314.38
2023-02-16T04:43:28.852Z,100303.41
2023-02-16T04:46:16.026Z,100308.44
2023-02-16T04:49:03.694Z,100294.38
2023-02-16T04:51:50.786Z,100313.56
2023-02-16T04:54:37.938Z,100307.03
2023-02-16T04:57:26.131Z,100287.66
2023-02-16T05:00:13.708Z,100287.66
2023-02-16T05:03:00.796Z,100288.03
2023-02-16T05:05:47.802Z,100297.50
2023-02-16T05:08:35.331Z,100287.66
2023-02-16T05:11:48.746Z,100286.91
2023-02-16T05:14:42.642Z,100311.75
2023-02-16T05:17:29.663Z,100296.19
2023-02-16T05:20:16.729Z,100304.81
2023-02-16T05:23:03.892Z,100306.03
2023-02-16T05:25:50.972Z,100295.34
2023-02-16T05:28:38.024Z,100307.66
2023-02-16T05:31:25.786Z,100320.50
2023-02-16T05:34:12.899Z,100321.09
2023-02-16T05:36:59.951Z,100320.00
2023-02-16T05:39:47.021Z,100322.44
2023-02-16T05:42:34.093Z,100311.72
2023-02-16T05:45:21.263Z,100315.94
2023-02-16T05:48:08.324Z,100317.69
2023-02-16T05:50:55.353Z,100308.03
2023-02-16T05:53:42.637Z,100313.56
2023-02-16T05:56:29.751Z,100308.38
2023-02-16T05:59:18.001Z,100318.25
2023-02-16T06:02:05.189Z,100303.63
2023-02-16T06:04:52.223Z,100329.56
2023-02-16T06:07:39.276Z,100314.81
2023-02-16T06:10:27.145Z,100322.53
2023-02-16T06:13:14.169Z,100340.03
2023-02-16T06:16:01.247Z,100341.13
2023-02-16T06:18:48.255Z,100329.00
2023-02-16T06:21:36.056Z,100325.59
2023-02-16T06:24:23.055Z,100336.19
2023-02-16T06:27:10.070Z,100335.13
2023-02-16T06:29:57.095Z,100333.66
2023-02-16T06:32:44.135Z,100345.94
2023-02-16T06:35:31.679Z,100335.44
2023-02-16T06:38:18.771Z,100350.63
2023-02-16T06:41:06.458Z,100346.31
2023-02-16T06:43:53.605Z,100346.59
2023-02-16T06:46:41.624Z,100343.72
2023-02-16T06:49:28.862Z,100353.03
2023-02-16T06:52:16.056Z,100348.72
2023-02-16T06:55:03.498Z,100346.84
2023-02-16T06:57:50.576Z,100346.97
2023-02-16T07:00:38.142Z,100353.66
2023-02-16T07:03:25.246Z,100362.97
2023-02-16T07:06:12.334Z,100355.72
2023-02-16T07:08:59.812Z,100355.31
2023-02-16T07:11:47.482Z,100356.47
2023-02-16T07:14:34.462Z,100360.94
2023-02-16T07:17:21.569Z,100357.47
2023-02-16T07:20:09.066Z,100330.28
2023-02-16T07:22:56.093Z,100345.31
2023-02-16T07:25:43.081Z,100345.94
2023-02-16T07:28:30.506Z,100364.41
2023-02-16T07:31:17.983Z,100355.09
2023-02-16T07:34:06.695Z,100350.34
2023-02-16T07:36:53.808Z,100346.78
2023-02-16T07:39:40.898Z,100355.53
2023-02-16T07:42:32.003Z,100332.13
2023-02-16T07:45:19.630Z,100327.91
2023-02-16T07:48:06.703Z,100371.41
2023-02-16T07:50:53.952Z,100331.81
2023-02-16T07:53:41.014Z,100335.16
2023-02-16T07:56:30.667Z,100365.72
2023-02-16T07:59:17.790Z,100331.50
2023-02-16T08:02:04.987Z,100368.28
2023-02-16T08:04:55.216Z,100327.63
2023-02-16T08:07:42.239Z,100366.63
2023-02-16T08:10:29.268Z,100367.75
2023-02-16T08:13:16.422Z,100322.22
2023-02-16T08:16:03.924Z,100343.06
2023-02-16T08:18:52.532Z,100351.44
2023-02-16T08:21:39.951Z,100327.28
2023-02-16T08:24:27.332Z,100367.34
2023-02-16T08:27:14.367Z,100314.38
2023-02-16T08:30:01.443Z,100363.03
2023-02-16T08:32:50.973Z,100373.97
2023-02-16T08:35:38.746Z,100339.09
2023-02-16T08:38:25.829Z,100355.03
2023-02-16T08:41:12.956Z,100344.84
2023-02-16T08:44:01.162Z,100330.06
2023-02-16T08:46:49.523Z,100377.41
2023-02-16T08:49:37.120Z,100380.03
2023-02-16T08:52:24.751Z,100360.47
2023-02-16T08:55:12.097Z,100374.19
2023-02-16T08:58:00.930Z,100355.78
2023-02-16T09:00:48.349Z,100370.16
2023-02-16T09:03:36.706Z,100383.94
2023-02-16T09:06:23.814Z,100389.38
2023-02-16T09:09:11.965Z,100397.34
2023-02-16T09:11:59.232Z,100371.53
2023-02-16T09:14:47.107Z,100397.69
2023-02-16T09:17:34.210Z,100394.38
2023-02-16T09:20:21.328Z,100381.38
2023-02-16T09:23:10.799Z,100398.97
2023-02-16T09:26:00.469Z,100397.19
2023-02-16T09:28:49.089Z,100401.28
2023-02-16T09:31:37.650Z,100368.19
2023-02-16T09:34:27.432Z,100391.34
2023-02-16T09:37:15.006Z,100351.13
2023-02-16T09:40:02.069Z,100335.03
2023-02-16T09:42:57.419Z,100385.34
2023-02-16T09:45:49.992Z,100339.19
2023-02-16T09:48:49.660Z,100356.97
2023-02-16T09:51:41.279Z,100316.81
2023-02-16T09:54:37.417Z,100374.53
2023-02-16T09:57:46.750Z,100340.53
2023-02-16T10:00:33.784Z,100373.81
2023-02-16T10:03:41.520Z,100370.53
2023-02-16T10:06:36.422Z,100334.09
2023-02-16T10:09:26.124Z,100340.44
2023-02-16T10:12:19.744Z,100297.56
2023-02-16T10:15:16.535Z,100354.50
2023-02-16T10:18:28.192Z,100356.78
2023-02-16T10:21:24.610Z,100352.94
2023-02-16T10:24:13.525Z,100325.38
2023-02-16T10:27:08.503Z,100339.28
2023-02-16T10:29:56.201Z,100302.72
2023-02-16T10:32:57.981Z,100264.59
2023-02-16T10:35:52.528Z,100325.91
2023-02-16T10:39:02.197Z,100260.34
2023-02-16T10:42:12.586Z,100252.97
2023-02-16T10:45:11.699Z,100319.25
2023-02-16T10:47:59.474Z,100281.28
2023-02-16T10:50:49.241Z,100312.22
2023-02-16T10:54:13.686Z,100305.03
2023-02-16T10:57:05.428Z,100301.44
2023-02-16T10:59:53.799Z,100307.47
2023-02-16T11:02:48.518Z,100304.59
2023-02-16T11:05:38.858Z,100270.03
2023-02-16T11:08:46.747Z,100296.84
2023-02-16T11:11:40.442Z,100258.28
2023-02-16T11:14:31.279Z,100291.69
2023-02-16T11:17:21.273Z,100278.66
2023-02-16T11:20:24.731Z,100255.28
2023-02-16T11:23:17.538Z,100282.19
2023-02-16T11:26:10.694Z,100276.25
2023-02-16T11:29:17.960Z,100265.63
2023-02-16T11:32:10.640Z,100230.47
2023-02-16T11:34:58.690Z,100262.19
2023-02-16T11:37:46.506Z,100228.72
2023-02-16T11:40:34.919Z,100239.41
2023-02-16T11:43:22.319Z,100202.22
2023-02-16T11:46:17.799Z,100245.41
2023-02-16T11:49:30.460Z,100225.09
2023-02-16T11:52:23.557Z,100245.25
2023-02-16T11:55:32.905Z,100233.66
2023-02-16T11:58:29.364Z,100232.47
2023-02-16T12:01:41.449Z,100224.47
2023-02-16T12:04:43.772Z,100220.53
2023-02-16T12:07:30.830Z,100222.75
2023-02-16T12:10:22.699Z,100213.91
2023-02-16T12:13:22.767Z,100218.94
2023-02-16T12:16:22.037Z,100211.81
2023-02-16T12:19:28.591Z,100205.91
2023-02-16T12:22:33.853Z,100202.34
2023-02-16T12:25:34.703Z,100192.28
2023-02-16T12:28:46.001Z,100201.63
2023-02-16T12:31:48.709Z,100185.50
2023-02-16T12:35:00.890Z,100174.25
2023-02-16T12:38:16.609Z,100180.34
2023-02-16T12:41:26.717Z,100143.16
2023-02-16T12:44:19.892Z,100169.91
2023-02-16T12:47:14.764Z,100168.88
2023-02-16T12:50:06.561Z,100117.09
2023-02-16T12:53:04.001Z,100161.66
2023-02-16T12:55:57.006Z,100134.22
2023-02-16T12:58:47.739Z,100143.56
2023-02-16T13:01:36.951Z,100107.50
2023-02-16T13:04:36.459Z,100103.97
2023-02-16T13:07:28.803Z,100087.03
2023-02-16T13:11:06.011Z,100119.47
2023-02-16T13:13:57.013Z,100127.63
2023-02-16T13:16:52.440Z,100081.56
2023-02-16T13:19:40.513Z,100084.31
2023-02-16T13:22:53.926Z,100124.72
2023-02-16T13:26:11.286Z,100092.34
2023-02-16T13:29:08.325Z,100129.81
2023-02-16T13:32:34.318Z,100120.16
2023-02-16T13:35:30.584Z,100124.44
2023-02-16T13:38:18.359Z,100118.91
2023-02-16T13:41:43.018Z,100123.28
2023-02-16T13:44:47.062Z,100115.50
2023-02-16T13:47:38.670Z,100103.03
2023-02-16T13:50:30.364Z,100116.25
2023-02-16T13:53:20.767Z,100084.41
2023-02-16T13:56:25.064Z,100101.09
2023-02-16T13:59:38.294Z,100118.63
2023-02-16T14:03:04.933Z,100121.66
2023-02-16T14:05:53.818Z,100111.03
2023-02-16T14:08:42.888Z,100092.97
2023-02-16T14:11:53.244Z,100099.59
2023-02-16T14:14:55.491Z,100098.72
2023-02-16T14:17:44.262Z,100099.34
2023-02-16T14:20:31.556Z,100100.59
2023-02-16T14:23:34.521Z,100103.03
2023-02-16T14:26:22.552Z,100090.09
2023-02-16T14:29:19.326Z,100109.00
2023-02-16T14:32:28.794Z,100109.53
2023-02-16T14:35:24.854Z,100067.31
2023-02-16T14:38:25.215Z,100109.63
2023-02-16T14:41:23.838Z,100096.88
2023-02-16T14:44:38.677Z,100092.19
2023-02-16T14:47:41.478Z,100117.94
2023-02-16T14:50:34.662Z,100115.25
2023-02-16T14:53:52.066Z,100090.34
2023-02-16T14:56:50.326Z,100112.19
2023-02-16T14:59:57.555Z,100087.81
2023-02-16T15:02:56.898Z,100063.63
2023-02-16T15:05:57.344Z,100106.34
2023-02-16T15:08:48.606Z,100055.00
2023-02-16T15:12:01.092Z,100068.41
2023-02-16T15:14:49.538Z,100044.31
2023-02-16T15:17:40.661Z,100094.03
2023-02-16T15:20:38.357Z,100079.72
2023-02-16T15:23:29.491Z,100099.31
2023-02-16T15:26:26.739Z,100102.72
2023-02-16T15:29:16.710Z,100104.81
2023-02-16T15:32:07.396Z,100087.09
2023-02-16T15:34:54.752Z,100097.41
2023-02-16T15:37:41.936Z,100059.69
2023-02-16T15:40:31.943Z,100095.50
2023-02-16T15:43:31.282Z,100095.09
2023-02-16T15:46:32.470Z,100072.63
2023-02-16T15:49:28.301Z,100082.50
2023-02-16T15:52:32.896Z,100078.41
2023-02-16T15:55:20.409Z,100093.50
2023-02-16T15:58:07.850Z,100076.72
2023-02-16T16:00:55.318Z,100093.94
2023-02-16T16:03:46.874Z,100113.25
2023-02-16T16:06:37.593Z,100100.34
2023-02-16T16:09:27.056Z,100125.78
2023-02-16T16:12:18.184Z,100106.63
2023-02-16T16:15:06.838Z,100074.31
2023-02-16T16:17:56.187Z,100122.00
2023-02-16T16:20:44.339Z,100120.69
2023-02-16T16:23:33.424Z,100108.16
2023-02-16T16:26:24.132Z,100139.78
2023-02-16T16:29:32.458Z,100130.13
2023-02-16T16:32:28.257Z,100059.50
2023-02-16T16:35:24.959Z,100143.50
2023-02-16T16:38:22.117Z,100134.13
2023-02-16T16:41:27.019Z,100073.63
2023-02-16T16:44:42.253Z,100119.78
2023-02-16T16:47:49.851Z,100090.63
2023-02-16T16:50:40.457Z,100129.88
2023-02-16T16:53:31.076Z,100153.88
2023-02-16T16:56:19.137Z,100154.44
2023-02-16T16:59:07.945Z,100145.06
2023-02-16T17:01:56.083Z,100158.97
2023-02-16T17:04:44.158Z,100142.81
2023-02-16T17:07:33.748Z,100155.13
2023-02-16T17:10:22.712Z,100158.00
2023-02-16T17:13:16.490Z,100167.38
2023-02-16T17:16:29.124Z,100155.22
2023-02-16T17:19:19.811Z,100163.66
2023-02-16T17:22:16.232Z,100131.94
2023-02-16T17:25:03.865Z,100156.16
2023-02-16T17:27:51.940Z,100151.44
2023-02-16T17:30:42.571Z,100157.47
2023-02-16T17:33:30.479Z,100134.97
2023-02-16T17:36:20.257Z,100113.09
2023-02-16T17:39:09.252Z,100112.31
2023-02-16T17:41:58.355Z,100141.84
2023-02-16T17:44:50.629Z,100126.00
2023-02-16T17:47:38.904Z,100153.00
2023-02-16T17:50:27.744Z,100128.97
2023-02-16T17:53:18.657Z,100139.41
2023-02-16T17:56:07.454Z,100154.22
2023-02-16T17:58:55.389Z,100164.75
2023-02-16T18:01:46.976Z,100167.56
2023-02-16T18:04:36.575Z,100158.44
2023-02-16T18:07:24.314Z,100175.50
2023-02-16T18:10:20.540Z,100170.28
2023-02-16T18:13:11.058Z,100170.13
2023-02-16T18:16:01.097Z,100167.72
2023-02-16T18:18:50.713Z,100160.00
2023-02-16T18:21:39.003Z,100107.47
2023-02-16T18:24:29.720Z,100170.66
2023-02-16T18:27:21.787Z,100176.50
2023-02-16T18:30:10.803Z,100181.56
2023-02-16T18:32:58.967Z,100184.56
2023-02-16T18:35:48.443Z,100190.75
2023-02-16T18:38:41.249Z,100191.13
2023-02-16T18:41:33.067Z,100182.25
2023-02-16T18:44:21.035Z,100139.75
2023-02-16T18:47:09.874Z,100176.28
2023-02-16T18:49:58.181Z,100185.88
2023-02-16T18:52:46.892Z,100193.41
2023-02-16T18:55:37.684Z,100190.53
2023-02-16T18:58:26.191Z,100157.75
2023-02-16T19:01:38.212Z,100187.81
2023-02-16T19:04:28.923Z,100156.03
2023-02-16T19:07:17.046Z,100124.69
2023-02-16T19:10:10.855Z,100167.19
2023-02-16T19:13:02.082Z,100190.03
2023-02-16T19:15:51.077Z,100192.34
2023-02-16T19:18:39.479Z,100183.03
2023-02-16T19:21:30.457Z,100185.31
2023-02-16T19:24:18.786Z,100186.69
2023-02-16T19:27:09.755Z,100181.22
2023-02-16T19:29:57.856Z,100149.00
2023-02-16T19:32:47.734Z,100168.69
2023-02-16T19:35:38.834Z,100190.69
2023-02-16T19:38:26.962Z,100176.75
2023-02-16T19:41:17.107Z,100193.25
2023-02-16T19:44:05.862Z,100192.97
2023-02-16T19:46:55.949Z,100185.41
2023-02-16T19:49:44.066Z,100175.34
2023-02-16T19:52:32.259Z,100152.38
2023-02-16T19:55:22.123Z,100167.41
2023-02-16T19:58:11.641Z,100199.06
2023-02-16T20:01:00.137Z,100171.72
2023-02-16T20:03:51.506Z,100201.78
2023-02-16T20:06:39.909Z,100189.16
2023-02-16T20:09:28.756Z,100193.13
2023-02-16T20:12:17.161Z,100189.91
2023-02-16T20:15:09.432Z,100188.59
2023-02-16T20:18:03.872Z,100197.00
2023-02-16T20:21:15.531Z,100208.66
2023-02-16T20:24:14.369Z,100200.78
2023-02-16T20:27:05.085Z,100194.09
2023-02-16T20:29:54.929Z,100185.84
2023-02-16T20:32:43.517Z,100196.78
2023-02-16T20:35:31.467Z,100192.69
2023-02-16T20:38:19.966Z,100184.19
2023-02-16T20:41:08.216Z,100195.56
2023-02-16T20:43:59.057Z,100170.94
2023-02-16T20:46:46.884Z,100151.13
2023-02-16T20:49:35.272Z,100187.59
2023-02-16T20:52:23.307Z,100184.69
2023-02-16T20:55:11.284Z,100184.56
2023-02-16T20:58:00.843Z,100188.31
2023-02-16T21:00:48.786Z,100189.75
2023-02-16T21:03:36.637Z,100178.84
2023-02-16T21:06:25.048Z,100185.03
2023-02-16T21:09:13.217Z,100191.16
2023-02-16T21:12:02.361Z,100168.94
2023-02-16T21:14:50.168Z,100176.38
2023-02-16T21:17:38.355Z,100168.56
2023-02-16T21:20:27.810Z,100161.50
2023-02-16T21:23:15.523Z,100170.41
2023-02-16T21:26:06.162Z,100176.91
2023-02-16T21:28:54.434Z,100169.66
2023-02-16T21:31:42.030Z,100178.31
2023-02-16T21:34:30.948Z,100172.16
2023-02-16T21:37:18.924Z,100158.88
2023-02-16T21:40:26.177Z,100165.03
2023-02-16T21:43:14.296Z,100156.38
2023-02-16T21:46:02.513Z,100155.56
2023-02-16T21:48:50.513Z,100158.75
2023-02-16T21:51:41.770Z,100158.09
2023-02-16T21:54:48.990Z,100146.22
2023-02-16T21:57:36.361Z,100165.69
2023-02-16T22:00:23.737Z,100145.00
2023-02-16T22:03:12.798Z,100152.53
2023-02-16T22:06:05.203Z,100161.88
2023-02-16T22:08:53.068Z,100157.38
2023-02-16T22:11:40.778Z,100153.47
2023-02-16T22:14:27.877Z,100145.53
2023-02-16T22:17:14.986Z,100141.53
2023-02-16T22:20:02.556Z,100144.81
2023-02-16T22:22:52.669Z,100131.34
2023-02-16T22:25:40.780Z,100145.22
2023-02-16T22:28:27.851Z,100141.03
2023-02-16T22:31:15.366Z,100154.81
2023-02-16T22:34:06.274Z,100154.75
2023-02-16T22:36:53.349Z,100159.56
2023-02-16T22:39:40.501Z,100140.84
2023-02-16T22:42:27.666Z,100146.50
2023-02-16T22:45:14.732Z,100134.94
2023-02-16T22:48:01.772Z,100131.09
2023-02-16T22:51:02.602Z,100131.38
2023-02-16T22:53:49.754Z,100134.34
2023-02-16T22:56:36.908Z,100129.19
2023-02-16T22:59:23.981Z,100120.81
2023-02-16T23:02:11.120Z,100126.41
2023-02-16T23:04:58.854Z,100117.31
2023-02-16T23:07:45.932Z,100118.56
2023-02-16T23:10:33.007Z,100110.50
2023-02-16T23:13:20.059Z,100125.50
2023-02-16T23:16:10.824Z,100114.28
2023-02-16T23:18:59.505Z,100125.78
2023-02-16T23:21:47.853Z,100106.94
2023-02-16T23:24:34.965Z,100072.69
2023-02-16T23:27:22.044Z,100106.00
2023-02-16T23:30:09.527Z,100123.53
2023-02-16T23:32:56.788Z,100106.81
2023-02-16T23:35:43.829Z,100116.38
2023-02-16T23:38:31.175Z,100117.44
2023-02-16T23:41:18.976Z,100105.53
2023-02-16T23:44:07.216Z,100124.72
2023-02-16T23:46:54.273Z,100103.28
2023-02-16T23:49:41.486Z,100113.31
2023-02-16T23:52:28.551Z,100115.03
2023-02-16T23:55:15.634Z,100097.75
2023-02-16T23:58:02.680Z,100092.50
